sensor_id;sensor_type;location;lat;lon;timestamp;P1;durP1;ratioP1;P2;durP2;ratioP2
13834;SDS011;6988;52.614;13.500;2022-08-19T00:03:18;12.80;;;11.70;;
13834;SDS011;6988;52.614;13.500;2022-08-19T00:08:10;12.57;;;11.27;;
13834;SDS011;6988;52.614;13.500;2022-08-19T00:13:01;11.13;;;10.13;;
13834;SDS011;6988;52.614;13.500;2022-08-19T00:17:55;11.03;;;9.93;;
13834;SDS011;6988;52.614;13.500;2022-08-19T00:22:47;11.60;;;10.50;;
13834;SDS011;6988;52.614;13.500;2022-08-19T00:27:39;11.00;;;10.00;;
13834;SDS011;6988;52.614;13.500;2022-08-19T00:32:31;12.57;;;11.37;;
13834;SDS011;6988;52.614;13.500;2022-08-19T00:37:25;11.57;;;10.57;;
13834;SDS011;6988;52.614;13.500;2022-08-19T00:42:18;11.23;;;10.13;;
13834;SDS011;6988;52.614;13.500;2022-08-19T00:47:12;12.53;;;11.23;;
13834;SDS011;6988;52.614;13.500;2022-08-19T00:52:07;13.50;;;12.23;;
13834;SDS011;6988;52.614;13.500;2022-08-19T00:57:06;12.90;;;11.63;;
13834;SDS011;6988;52.614;13.500;2022-08-19T01:02:03;13.00;;;11.80;;
13834;SDS011;6988;52.614;13.500;2022-08-19T01:06:55;13.30;;;11.83;;
13834;SDS011;6988;52.614;13.500;2022-08-19T01:11:49;13.77;;;12.37;;
13834;SDS011;6988;52.614;13.500;2022-08-19T01:16:44;13.20;;;12.00;;
13834;SDS011;6988;52.614;13.500;2022-08-19T01:21:39;13.37;;;12.17;;
13834;SDS011;6988;52.614;13.500;2022-08-19T01:26:40;12.90;;;11.63;;
13834;SDS011;6988;52.614;13.500;2022-08-19T01:31:35;13.30;;;11.90;;
13834;SDS011;6988;52.614;13.500;2022-08-19T01:36:29;12.90;;;11.60;;
13834;SDS011;6988;52.614;13.500;2022-08-19T01:41:24;12.80;;;11.63;;
13834;SDS011;6988;52.614;13.500;2022-08-19T01:46:17;12.83;;;11.53;;
13834;SDS011;6988;52.614;13.500;2022-08-19T01:51:10;12.47;;;11.10;;
13834;SDS011;6988;52.614;13.500;2022-08-19T01:56:03;12.03;;;10.83;;
13834;SDS011;6988;52.614;13.500;2022-08-19T02:00:57;12.27;;;11.07;;
13834;SDS011;6988;52.614;13.500;2022-08-19T02:05:54;16.60;;;13.17;;
13834;SDS011;6988;52.614;13.500;2022-08-19T02:10:49;15.63;;;12.80;;
13834;SDS011;6988;52.614;13.500;2022-08-19T02:15:41;15.80;;;13.30;;
13834;SDS011;6988;52.614;13.500;2022-08-19T02:20:33;15.07;;;13.40;;
13834;SDS011;6988;52.614;13.500;2022-08-19T02:25:26;13.87;;;12.50;;
13834;SDS011;6988;52.614;13.500;2022-08-19T02:30:19;14.60;;;13.30;;
13834;SDS011;6988;52.614;13.500;2022-08-19T02:35:12;17.27;;;14.83;;
13834;SDS011;6988;52.614;13.500;2022-08-19T02:40:05;15.27;;;13.87;;
13834;SDS011;6988;52.614;13.500;2022-08-19T02:44:59;15.37;;;13.97;;
13834;SDS011;6988;52.614;13.500;2022-08-19T02:49:51;16.00;;;14.30;;
13834;SDS011;6988;52.614;13.500;2022-08-19T02:54:43;16.20;;;14.30;;
13834;SDS011;6988;52.614;13.500;2022-08-19T02:59:36;16.23;;;14.63;;
13834;SDS011;6988;52.614;13.500;2022-08-19T03:04:29;14.77;;;13.37;;
13834;SDS011;6988;52.614;13.500;2022-08-19T03:09:21;15.03;;;13.53;;
13834;SDS011;6988;52.614;13.500;2022-08-19T03:14:12;14.33;;;12.93;;
13834;SDS011;6988;52.614;13.500;2022-08-19T03:19:04;14.10;;;12.80;;
13834;SDS011;6988;52.614;13.500;2022-08-19T03:23:58;15.27;;;13.67;;
13834;SDS011;6988;52.614;13.500;2022-08-19T03:28:53;14.93;;;13.63;;
13834;SDS011;6988;52.614;13.500;2022-08-19T03:33:45;15.73;;;14.13;;
13834;SDS011;6988;52.614;13.500;2022-08-19T03:38:38;15.77;;;13.73;;
13834;SDS011;6988;52.614;13.500;2022-08-19T03:43:34;16.07;;;14.53;;
13834;SDS011;6988;52.614;13.500;2022-08-19T03:48:27;16.83;;;14.23;;
13834;SDS011;6988;52.614;13.500;2022-08-19T03:53:20;16.30;;;14.70;;
13834;SDS011;6988;52.614;13.500;2022-08-19T03:58:12;16.50;;;14.67;;
13834;SDS011;6988;52.614;13.500;2022-08-19T04:03:05;16.60;;;14.67;;
13834;SDS011;6988;52.614;13.500;2022-08-19T04:07:57;17.20;;;15.43;;
13834;SDS011;6988;52.614;13.500;2022-08-19T04:12:50;15.77;;;14.27;;
13834;SDS011;6988;52.614;13.500;2022-08-19T04:17:42;16.53;;;14.93;;
13834;SDS011;6988;52.614;13.500;2022-08-19T04:22:35;17.17;;;15.40;;
13834;SDS011;6988;52.614;13.500;2022-08-19T04:27:27;16.00;;;14.57;;
13834;SDS011;6988;52.614;13.500;2022-08-19T04:32:19;15.40;;;14.00;;
13834;SDS011;6988;52.614;13.500;2022-08-19T04:37:11;15.77;;;14.27;;
13834;SDS011;6988;52.614;13.500;2022-08-19T04:42:04;15.67;;;14.17;;
13834;SDS011;6988;52.614;13.500;2022-08-19T04:47:14;16.53;;;14.83;;
13834;SDS011;6988;52.614;13.500;2022-08-19T04:52:06;16.17;;;14.67;;
13834;SDS011;6988;52.614;13.500;2022-08-19T04:56:58;16.73;;;15.13;;
13834;SDS011;6988;52.614;13.500;2022-08-19T05:01:51;16.23;;;14.63;;
13834;SDS011;6988;52.614;13.500;2022-08-19T05:06:43;15.83;;;14.43;;
13834;SDS011;6988;52.614;13.500;2022-08-19T05:11:35;16.73;;;15.13;;
13834;SDS011;6988;52.614;13.500;2022-08-19T05:16:28;15.50;;;14.00;;
13834;SDS011;6988;52.614;13.500;2022-08-19T05:21:22;16.10;;;14.63;;
13834;SDS011;6988;52.614;13.500;2022-08-19T05:26:31;15.63;;;14.23;;
13834;SDS011;6988;52.614;13.500;2022-08-19T05:31:23;16.03;;;14.53;;
13834;SDS011;6988;52.614;13.500;2022-08-19T05:36:15;16.87;;;15.20;;
13834;SDS011;6988;52.614;13.500;2022-08-19T05:41:10;17.07;;;15.47;;
13834;SDS011;6988;52.614;13.500;2022-08-19T05:46:05;16.90;;;15.10;;
13834;SDS011;6988;52.614;13.500;2022-08-19T05:51:02;16.33;;;14.83;;
13834;SDS011;6988;52.614;13.500;2022-08-19T05:55:56;18.10;;;16.30;;
13834;SDS011;6988;52.614;13.500;2022-08-19T06:00:49;18.30;;;16.53;;
13834;SDS011;6988;52.614;13.500;2022-08-19T06:05:42;19.13;;;17.20;;
13834;SDS011;6988;52.614;13.500;2022-08-19T06:10:34;18.97;;;17.20;;
13834;SDS011;6988;52.614;13.500;2022-08-19T06:15:26;20.00;;;18.07;;
13834;SDS011;6988;52.614;13.500;2022-08-19T06:20:20;19.33;;;17.50;;
13834;SDS011;6988;52.614;13.500;2022-08-19T06:25:12;20.07;;;18.10;;
13834;SDS011;6988;52.614;13.500;2022-08-19T06:30:06;19.97;;;18.17;;
13834;SDS011;6988;52.614;13.500;2022-08-19T06:35:00;20.67;;;18.60;;
13834;SDS011;6988;52.614;13.500;2022-08-19T06:39:53;20.20;;;18.20;;
13834;SDS011;6988;52.614;13.500;2022-08-19T06:44:45;21.53;;;19.43;;
13834;SDS011;6988;52.614;13.500;2022-08-19T06:49:39;21.20;;;18.97;;
13834;SDS011;6988;52.614;13.500;2022-08-19T06:54:31;21.67;;;19.37;;
13834;SDS011;6988;52.614;13.500;2022-08-19T06:59:24;20.77;;;18.87;;
13834;SDS011;6988;52.614;13.500;2022-08-19T07:04:19;20.87;;;18.70;;
13834;SDS011;6988;52.614;13.500;2022-08-19T07:09:15;19.30;;;17.33;;
13834;SDS011;6988;52.614;13.500;2022-08-19T07:14:09;18.57;;;16.73;;
13834;SDS011;6988;52.614;13.500;2022-08-19T07:19:02;19.45;;;17.50;;
13834;SDS011;6988;52.614;13.500;2022-08-19T07:23:54;18.92;;;17.25;;
13834;SDS011;6988;52.614;13.500;2022-08-19T07:28:48;20.03;;;18.13;;
13834;SDS011;6988;52.614;13.500;2022-08-19T07:33:40;19.63;;;17.45;;
13834;SDS011;6988;52.614;13.500;2022-08-19T07:38:34;19.92;;;17.98;;
13834;SDS011;6988;52.614;13.500;2022-08-19T07:43:26;20.95;;;18.67;;
13834;SDS011;6988;52.614;13.500;2022-08-19T07:48:18;20.93;;;18.73;;
13834;SDS011;6988;52.614;13.500;2022-08-19T07:53:10;20.75;;;18.85;;
13834;SDS011;6988;52.614;13.500;2022-08-19T07:58:04;22.50;;;20.25;;
13834;SDS011;6988;52.614;13.500;2022-08-19T08:02:56;22.13;;;20.02;;
13834;SDS011;6988;52.614;13.500;2022-08-19T08:07:48;21.58;;;19.52;;
13834;SDS011;6988;52.614;13.500;2022-08-19T08:12:59;21.33;;;19.30;;
13834;SDS011;6988;52.614;13.500;2022-08-19T08:17:52;21.45;;;19.35;;
13834;SDS011;6988;52.614;13.500;2022-08-19T08:22:44;20.17;;;18.30;;
13834;SDS011;6988;52.614;13.500;2022-08-19T08:27:56;20.80;;;18.90;;
13834;SDS011;6988;52.614;13.500;2022-08-19T08:32:50;20.90;;;18.90;;
13834;SDS011;6988;52.614;13.500;2022-08-19T08:37:44;20.13;;;18.30;;
13834;SDS011;6988;52.614;13.500;2022-08-19T08:42:40;20.98;;;18.98;;
13834;SDS011;6988;52.614;13.500;2022-08-19T08:47:45;20.40;;;18.50;;
13834;SDS011;6988;52.614;13.500;2022-08-19T08:52:45;22.08;;;20.08;;
13834;SDS011;6988;52.614;13.500;2022-08-19T08:57:43;20.70;;;18.70;;
13834;SDS011;6988;52.614;13.500;2022-08-19T09:02:44;20.30;;;18.27;;
13834;SDS011;6988;52.614;13.500;2022-08-19T09:07:39;20.38;;;18.48;;
13834;SDS011;6988;52.614;13.500;2022-08-19T09:12:45;20.73;;;18.75;;
13834;SDS011;6988;52.614;13.500;2022-08-19T09:17:46;20.35;;;18.30;;
13834;SDS011;6988;52.614;13.500;2022-08-19T09:22:38;20.95;;;19.05;;
13834;SDS011;6988;52.614;13.500;2022-08-19T09:27:35;20.83;;;18.75;;
13834;SDS011;6988;52.614;13.500;2022-08-19T09:32:29;18.13;;;16.33;;
13834;SDS011;6988;52.614;13.500;2022-08-19T09:37:21;17.58;;;16.08;;
13834;SDS011;6988;52.614;13.500;2022-08-19T09:42:13;18.55;;;16.75;;
13834;SDS011;6988;52.614;13.500;2022-08-19T09:47:07;17.02;;;15.32;;
13834;SDS011;6988;52.614;13.500;2022-08-19T09:52:03;15.95;;;14.55;;
13834;SDS011;6988;52.614;13.500;2022-08-19T09:56:55;14.93;;;13.55;;
13834;SDS011;6988;52.614;13.500;2022-08-19T10:01:50;14.05;;;12.82;;
13834;SDS011;6988;52.614;13.500;2022-08-19T10:06:44;14.00;;;12.77;;
13834;SDS011;6988;52.614;13.500;2022-08-19T10:11:39;12.98;;;11.88;;
13834;SDS011;6988;52.614;13.500;2022-08-19T10:16:32;13.38;;;12.23;;
13834;SDS011;6988;52.614;13.500;2022-08-19T10:21:27;13.63;;;12.30;;
13834;SDS011;6988;52.614;13.500;2022-08-19T10:26:26;13.07;;;11.88;;
13834;SDS011;6988;52.614;13.500;2022-08-19T10:31:25;13.18;;;11.98;;
13834;SDS011;6988;52.614;13.500;2022-08-19T10:36:22;14.02;;;12.35;;
13834;SDS011;6988;52.614;13.500;2022-08-19T10:41:17;13.05;;;11.75;;
13834;SDS011;6988;52.614;13.500;2022-08-19T10:46:14;14.35;;;13.05;;
13834;SDS011;6988;52.614;13.500;2022-08-19T10:51:06;13.27;;;11.88;;
13834;SDS011;6988;52.614;13.500;2022-08-19T10:56:17;13.10;;;11.90;;
13834;SDS011;6988;52.614;13.500;2022-08-19T11:01:29;13.35;;;12.05;;
13834;SDS011;6988;52.614;13.500;2022-08-19T11:06:23;13.30;;;11.52;;
13834;SDS011;6988;52.614;13.500;2022-08-19T11:11:16;13.05;;;11.88;;
13834;SDS011;6988;52.614;13.500;2022-08-19T11:16:09;12.70;;;11.48;;
13834;SDS011;6988;52.614;13.500;2022-08-19T11:21:07;12.90;;;11.68;;
13834;SDS011;6988;52.614;13.500;2022-08-19T11:26:06;13.43;;;12.13;;
13834;SDS011;6988;52.614;13.500;2022-08-19T11:30:58;13.48;;;12.10;;
13834;SDS011;6988;52.614;13.500;2022-08-19T11:35:51;13.25;;;12.13;;
13834;SDS011;6988;52.614;13.500;2022-08-19T11:40:45;13.55;;;11.95;;
13834;SDS011;6988;52.614;13.500;2022-08-19T11:45:46;13.15;;;11.88;;
13834;SDS011;6988;52.614;13.500;2022-08-19T11:50:38;13.05;;;11.75;;
13834;SDS011;6988;52.614;13.500;2022-08-19T11:55:32;12.40;;;11.10;;
13834;SDS011;6988;52.614;13.500;2022-08-19T12:00:30;12.15;;;10.95;;
13834;SDS011;6988;52.614;13.500;2022-08-19T12:05:22;12.43;;;11.18;;
13834;SDS011;6988;52.614;13.500;2022-08-19T12:10:13;12.50;;;11.40;;
13834;SDS011;6988;52.614;13.500;2022-08-19T12:15:06;12.27;;;11.18;;
13834;SDS011;6988;52.614;13.500;2022-08-19T12:20:02;11.93;;;10.73;;
13834;SDS011;6988;52.614;13.500;2022-08-19T12:24:56;11.27;;;10.25;;
13834;SDS011;6988;52.614;13.500;2022-08-19T12:29:48;11.65;;;10.48;;
13834;SDS011;6988;52.614;13.500;2022-08-19T12:34:40;11.43;;;10.32;;
13834;SDS011;6988;52.614;13.500;2022-08-19T12:39:35;12.30;;;11.13;;
13834;SDS011;6988;52.614;13.500;2022-08-19T12:44:28;12.38;;;11.27;;
13834;SDS011;6988;52.614;13.500;2022-08-19T12:49:21;12.25;;;11.05;;
13834;SDS011;6988;52.614;13.500;2022-08-19T12:54:14;11.43;;;10.32;;
13834;SDS011;6988;52.614;13.500;2022-08-19T12:59:08;12.18;;;10.98;;
13834;SDS011;6988;52.614;13.500;2022-08-19T13:04:01;11.75;;;10.75;;
13834;SDS011;6988;52.614;13.500;2022-08-19T13:08:53;11.70;;;10.50;;
13834;SDS011;6988;52.614;13.500;2022-08-19T13:13:47;11.85;;;10.75;;
13834;SDS011;6988;52.614;13.500;2022-08-19T13:18:42;11.07;;;10.18;;
13834;SDS011;6988;52.614;13.500;2022-08-19T13:23:37;11.65;;;10.52;;
13834;SDS011;6988;52.614;13.500;2022-08-19T13:28:29;11.70;;;10.55;;
13834;SDS011;6988;52.614;13.500;2022-08-19T13:33:36;11.68;;;10.60;;
13834;SDS011;6988;52.614;13.500;2022-08-19T13:38:29;11.10;;;10.10;;
13834;SDS011;6988;52.614;13.500;2022-08-19T13:43:23;11.70;;;10.65;;
13834;SDS011;6988;52.614;13.500;2022-08-19T13:48:17;11.90;;;10.80;;
13834;SDS011;6988;52.614;13.500;2022-08-19T13:53:09;11.63;;;10.40;;
13834;SDS011;6988;52.614;13.500;2022-08-19T13:58:04;11.48;;;10.40;;
13834;SDS011;6988;52.614;13.500;2022-08-19T14:02:56;11.20;;;10.20;;
13834;SDS011;6988;52.614;13.500;2022-08-19T14:07:48;10.75;;;9.75;;
13834;SDS011;6988;52.614;13.500;2022-08-19T14:12:40;11.25;;;10.25;;
13834;SDS011;6988;52.614;13.500;2022-08-19T14:17:34;10.80;;;9.90;;
13834;SDS011;6988;52.614;13.500;2022-08-19T14:22:28;13.10;;;10.32;;
13834;SDS011;6988;52.614;13.500;2022-08-19T14:27:20;11.05;;;9.93;;
13834;SDS011;6988;52.614;13.500;2022-08-19T14:32:15;10.60;;;9.43;;
13834;SDS011;6988;52.614;13.500;2022-08-19T14:37:08;10.88;;;9.77;;
13834;SDS011;6988;52.614;13.500;2022-08-19T14:42:00;10.15;;;9.23;;
13834;SDS011;6988;52.614;13.500;2022-08-19T14:46:52;11.82;;;9.30;;
13834;SDS011;6988;52.614;13.500;2022-08-19T14:51:44;9.93;;;9.02;;
13834;SDS011;6988;52.614;13.500;2022-08-19T14:56:38;10.18;;;9.25;;
13834;SDS011;6988;52.614;13.500;2022-08-19T15:01:31;9.88;;;8.98;;
13834;SDS011;6988;52.614;13.500;2022-08-19T15:06:25;10.02;;;9.13;;
13834;SDS011;6988;52.614;13.500;2022-08-19T15:11:18;9.80;;;8.98;;
13834;SDS011;6988;52.614;13.500;2022-08-19T15:16:14;10.02;;;9.02;;
13834;SDS011;6988;52.614;13.500;2022-08-19T15:21:07;10.02;;;9.13;;
13834;SDS011;6988;52.614;13.500;2022-08-19T15:25:59;9.93;;;9.13;;
13834;SDS011;6988;52.614;13.500;2022-08-19T15:30:52;10.63;;;9.52;;
13834;SDS011;6988;52.614;13.500;2022-08-19T15:35:46;9.45;;;8.50;;
13834;SDS011;6988;52.614;13.500;2022-08-19T15:40:40;9.48;;;8.50;;
13834;SDS011;6988;52.614;13.500;2022-08-19T15:45:33;11.02;;;9.70;;
13834;SDS011;6988;52.614;13.500;2022-08-19T15:50:25;10.55;;;9.55;;
13834;SDS011;6988;52.614;13.500;2022-08-19T15:55:19;10.48;;;9.48;;
13834;SDS011;6988;52.614;13.500;2022-08-19T16:00:15;10.10;;;9.20;;
13834;SDS011;6988;52.614;13.500;2022-08-19T16:05:25;10.07;;;9.07;;
13834;SDS011;6988;52.614;13.500;2022-08-19T16:10:37;9.57;;;8.77;;
13834;SDS011;6988;52.614;13.500;2022-08-19T16:15:30;10.95;;;9.43;;
13834;SDS011;6988;52.614;13.500;2022-08-19T16:20:22;11.45;;;10.35;;
13834;SDS011;6988;52.614;13.500;2022-08-19T16:25:16;11.60;;;10.60;;
13834;SDS011;6988;52.614;13.500;2022-08-19T16:30:09;10.57;;;9.65;;
13834;SDS011;6988;52.614;13.500;2022-08-19T16:35:02;10.55;;;9.65;;
13834;SDS011;6988;52.614;13.500;2022-08-19T16:39:56;11.02;;;10.02;;
13834;SDS011;6988;52.614;13.500;2022-08-19T16:44:47;10.52;;;9.48;;
13834;SDS011;6988;52.614;13.500;2022-08-19T16:49:40;12.35;;;11.18;;
13834;SDS011;6988;52.614;13.500;2022-08-19T16:54:32;11.55;;;10.40;;
13834;SDS011;6988;52.614;13.500;2022-08-19T16:59:24;11.35;;;10.25;;
13834;SDS011;6988;52.614;13.500;2022-08-19T17:04:16;11.50;;;10.32;;
13834;SDS011;6988;52.614;13.500;2022-08-19T17:09:09;11.40;;;10.30;;
13834;SDS011;6988;52.614;13.500;2022-08-19T17:14:01;11.82;;;10.73;;
13834;SDS011;6988;52.614;13.500;2022-08-19T17:18:56;11.57;;;10.57;;
13834;SDS011;6988;52.614;13.500;2022-08-19T17:23:52;11.73;;;10.63;;
13834;SDS011;6988;52.614;13.500;2022-08-19T17:28:46;11.75;;;10.75;;
13834;SDS011;6988;52.614;13.500;2022-08-19T17:33:40;11.65;;;10.55;;
13834;SDS011;6988;52.614;13.500;2022-08-19T17:38:32;13.25;;;11.98;;
13834;SDS011;6988;52.614;13.500;2022-08-19T17:43:25;11.60;;;10.50;;
13834;SDS011;6988;52.614;13.500;2022-08-19T17:48:19;13.33;;;12.17;;
13834;SDS011;6988;52.614;13.500;2022-08-19T17:53:11;12.20;;;11.10;;
13834;SDS011;6988;52.614;13.500;2022-08-19T17:58:02;13.55;;;12.25;;
13834;SDS011;6988;52.614;13.500;2022-08-19T18:02:57;12.63;;;11.27;;
13834;SDS011;6988;52.614;13.500;2022-08-19T18:07:53;11.98;;;10.88;;
13834;SDS011;6988;52.614;13.500;2022-08-19T18:12:46;12.73;;;11.50;;
13834;SDS011;6988;52.614;13.500;2022-08-19T18:17:38;13.27;;;10.80;;
13834;SDS011;6988;52.614;13.500;2022-08-19T18:22:31;11.27;;;10.27;;
13834;SDS011;6988;52.614;13.500;2022-08-19T18:27:27;9.10;;;8.27;;
13834;SDS011;6988;52.614;13.500;2022-08-19T18:32:19;9.32;;;8.52;;
13834;SDS011;6988;52.614;13.500;2022-08-19T18:37:12;9.02;;;8.20;;
13834;SDS011;6988;52.614;13.500;2022-08-19T18:42:04;8.57;;;7.78;;
13834;SDS011;6988;52.614;13.500;2022-08-19T18:47:15;8.18;;;7.47;;
13834;SDS011;6988;52.614;13.500;2022-08-19T18:52:24;8.60;;;7.80;;
13834;SDS011;6988;52.614;13.500;2022-08-19T18:57:16;8.32;;;7.53;;
13834;SDS011;6988;52.614;13.500;2022-08-19T19:02:15;7.53;;;6.93;;
13834;SDS011;6988;52.614;13.500;2022-08-19T19:07:07;7.93;;;7.22;;
13834;SDS011;6988;52.614;13.500;2022-08-19T19:12:00;7.22;;;6.63;;
13834;SDS011;6988;52.614;13.500;2022-08-19T19:16:55;7.28;;;6.68;;
13834;SDS011;6988;52.614;13.500;2022-08-19T19:21:49;7.45;;;6.70;;
13834;SDS011;6988;52.614;13.500;2022-08-19T19:26:42;7.57;;;6.88;;
13834;SDS011;6988;52.614;13.500;2022-08-19T19:31:34;7.63;;;6.85;;
13834;SDS011;6988;52.614;13.500;2022-08-19T19:36:26;7.30;;;6.60;;
13834;SDS011;6988;52.614;13.500;2022-08-19T19:41:20;8.10;;;7.40;;
13834;SDS011;6988;52.614;13.500;2022-08-19T19:46:13;7.65;;;6.95;;
13834;SDS011;6988;52.614;13.500;2022-08-19T19:51:06;7.65;;;7.03;;
13834;SDS011;6988;52.614;13.500;2022-08-19T19:55:58;9.38;;;7.90;;
13834;SDS011;6988;52.614;13.500;2022-08-19T20:00:54;8.02;;;7.38;;
13834;SDS011;6988;52.614;13.500;2022-08-19T20:05:48;8.15;;;7.32;;
13834;SDS011;6988;52.614;13.500;2022-08-19T20:10:40;7.82;;;7.13;;
13834;SDS011;6988;52.614;13.500;2022-08-19T20:15:33;8.45;;;7.75;;
13834;SDS011;6988;52.614;13.500;2022-08-19T20:20:29;8.90;;;8.10;;
13834;SDS011;6988;52.614;13.500;2022-08-19T20:25:21;7.80;;;7.20;;
13834;SDS011;6988;52.614;13.500;2022-08-19T20:30:15;8.70;;;7.90;;
13834;SDS011;6988;52.614;13.500;2022-08-19T20:35:10;8.07;;;7.38;;
13834;SDS011;6988;52.614;13.500;2022-08-19T20:40:05;7.90;;;7.20;;
13834;SDS011;6988;52.614;13.500;2022-08-19T20:45:00;8.53;;;7.83;;
13834;SDS011;6988;52.614;13.500;2022-08-19T20:49:52;7.85;;;7.15;;
13834;SDS011;6988;52.614;13.500;2022-08-19T20:54:44;8.93;;;8.13;;
13834;SDS011;6988;52.614;13.500;2022-08-19T20:59:37;9.55;;;8.65;;
13834;SDS011;6988;52.614;13.500;2022-08-19T21:04:28;9.48;;;8.57;;
13834;SDS011;6988;52.614;13.500;2022-08-19T21:09:20;9.95;;;8.95;;
13834;SDS011;6988;52.614;13.500;2022-08-19T21:14:12;9.43;;;8.55;;
13834;SDS011;6988;52.614;13.500;2022-08-19T21:19:05;9.93;;;9.02;;
13834;SDS011;6988;52.614;13.500;2022-08-19T21:23:57;10.52;;;9.52;;
13834;SDS011;6988;52.614;13.500;2022-08-19T21:28:49;9.85;;;9.05;;
13834;SDS011;6988;52.614;13.500;2022-08-19T21:33:40;9.85;;;9.05;;
13834;SDS011;6988;52.614;13.500;2022-08-19T21:38:34;9.50;;;8.70;;
13834;SDS011;6988;52.614;13.500;2022-08-19T21:43:27;10.30;;;9.40;;
13834;SDS011;6988;52.614;13.500;2022-08-19T22:03:35;13.03;;;11.83;;
13834;SDS011;6988;52.614;13.500;2022-08-19T22:08:29;12.67;;;11.57;;
13834;SDS011;6988;52.614;13.500;2022-08-19T22:13:20;12.55;;;11.35;;
13834;SDS011;6988;52.614;13.500;2022-08-19T22:18:12;13.20;;;11.90;;
13834;SDS011;6988;52.614;13.500;2022-08-19T22:23:08;12.68;;;11.57;;
13834;SDS011;6988;52.614;13.500;2022-08-19T22:28:00;12.43;;;11.32;;
13834;SDS011;6988;52.614;13.500;2022-08-19T22:32:56;13.13;;;11.93;;
13834;SDS011;6988;52.614;13.500;2022-08-19T22:37:50;12.90;;;11.68;;
13834;SDS011;6988;52.614;13.500;2022-08-19T22:42:43;12.00;;;11.00;;
13834;SDS011;6988;52.614;13.500;2022-08-19T22:47:35;12.63;;;11.38;;
13834;SDS011;6988;52.614;13.500;2022-08-19T22:52:29;12.95;;;11.75;;
13834;SDS011;6988;52.614;13.500;2022-08-19T22:57:21;13.45;;;12.13;;
13834;SDS011;6988;52.614;13.500;2022-08-19T23:02:17;12.85;;;11.68;;
13834;SDS011;6988;52.614;13.500;2022-08-19T23:07:12;15.07;;;13.55;;
13834;SDS011;6988;52.614;13.500;2022-08-19T23:12:04;15.43;;;13.93;;
13834;SDS011;6988;52.614;13.500;2022-08-19T23:16:57;14.73;;;13.30;;
13834;SDS011;6988;52.614;13.500;2022-08-19T23:21:50;16.05;;;14.65;;
13834;SDS011;6988;52.614;13.500;2022-08-19T23:26:42;16.88;;;14.60;;
13834;SDS011;6988;52.614;13.500;2022-08-19T23:31:54;15.65;;;14.15;;
13834;SDS011;6988;52.614;13.500;2022-08-19T23:36:46;17.02;;;15.35;;
13834;SDS011;6988;52.614;13.500;2022-08-19T23:41:41;18.25;;;16.45;;
13834;SDS011;6988;52.614;13.500;2022-08-19T23:46:32;19.17;;;17.27;;
13834;SDS011;6988;52.614;13.500;2022-08-19T23:51:25;18.85;;;16.85;;
13834;SDS011;6988;52.614;13.500;2022-08-19T23:56:17;20.20;;;17.85;;
